Time;durP1;ratioP1;P1;durP2;ratioP2;P2;SDS_P1;SDS_P2;PMS_P1;PMS_P2;Temp;Humidity;BMP_temperature;BMP_pressure;BME280_temperature;BME280_humidity;BME280_pressure;Samples;Min_cycle;Max_cycle;Signal;HPM_P1;HPM_P2
2022/07/18 00:00:24;;;;;;;;;;;;;;;;;;5052873;28;1522;-70
2022/07/18 00:02:51;;;;;;;;;;;;;;;;;;5071018;28;1914;-71
2022/07/18 00:05:17;;;;;;;;;;;;;;;;;;5070607;28;1375;-70
2022/07/18 00:07:44;;;;;;;;;;;;;;;;;;5052634;28;1256;-70
2022/07/18 00:10:10;;;;;;;;;;;;;;;;;;5070844;28;1000;-70
2022/07/18 00:12:37;;;;;;;;;;;;;;;;;;5071004;28;1118;-70
2022/07/18 00:15:03;;;;;;;;;;;;;;;;;;5071094;28;1387;-70
2022/07/18 00:17:29;;;;;;;;;;;;;;;;;;5052497;28;1207;-70
2022/07/18 00:19:55;;;;;;;;;;;;;;;;;;5052797;28;1332;-70
2022/07/18 00:22:22;;;;;;;;;;;;;;;;;;5070655;28;1916;-70
2022/07/18 00:24:49;;;;;;;;;;;;;;;;;;5070934;28;1059;-71
2022/07/18 00:27:15;;;;;;;;;;;;;;;;;;5070185;28;1411;-70
2022/07/18 00:29:41;;;;;;;;;;;;;;;;;;5070973;28;1071;-69
2022/07/18 00:32:08;;;;;;;;;;;;;;;;;;5070825;28;834;-69
2022/07/18 00:34:35;;;;;;;;;;;;;;;;;;5070977;28;1122;-70
2022/07/18 00:37:01;;;;;;;;;;;;;;;;;;5069940;28;1371;-70
2022/07/18 00:39:27;;;;;;;;;;;;;;;;;;5070691;28;1067;-70
2022/07/18 00:41:55;;;;;;;;;;;;;;;;;;5052742;28;1918;-71
2022/07/18 00:44:22;;;;;;;;;;;;;;;;;;5071151;28;1040;-70
2022/07/18 00:46:49;;;;;;;;;;;;;;;;;;5070102;28;1388;-70
2022/07/18 00:49:15;;;;;;;;;;;;;;;;;;5070698;28;928;-70
2022/07/18 00:51:41;;;;;;;;;;;;;;;;;;5052667;28;1142;-70
2022/07/18 00:54:07;;;;;;;;;;;;;;;;;;5070744;28;1118;-70
2022/07/18 00:56:33;;;;;;;;;;;;;;;;;;5051998;28;1395;-70
2022/07/18 00:59:01;;;;;;;;;;;;;;;;;;5070736;28;1021;-70
2022/07/18 01:01:47;;;;;;;;;;;;;;;;;;5070592;28;1984;-70
2022/07/18 01:04:14;;;;;;;;;;;;;;;;;;5070581;28;778;-70
2022/07/18 01:06:40;;;;;;;;;;;;;;;;;;5070058;28;1396;-70
2022/07/18 01:09:07;;;;;;;;;;;;;;;;;;5070327;28;1044;-70
2022/07/18 01:11:33;;;;;;;;;;;;;;;;;;5070575;28;1119;-70
2022/07/18 01:13:59;;;;;;;;;;;;;;;;;;5070526;28;1047;-70
2022/07/18 01:16:27;;;;;;;;;;;;;;;;;;5051874;28;1348;-70
2022/07/18 01:18:53;;;;;;;;;;;;;;;;;;5073916;28;941;-70
2022/07/18 01:21:20;;;;;;;;;;;;;;;;;;5073773;28;1068;-70
2022/07/18 01:23:47;;;;;;;;;;;;;;;;;;5074066;28;865;-70
2022/07/18 01:26:14;;;;;;;;;;;;;;;;;;5072962;28;1297;-70
2022/07/18 01:28:40;;;;;;;;;;;;;;;;;;5074002;28;1055;-70
2022/07/18 01:31:06;;;;;;;;;;;;;;;;;;5073605;28;1101;-71
2022/07/18 01:33:33;;;;;;;;;;;;;;;;;;5073868;28;992;-70
2022/07/18 01:35:59;;;;;;;;;;;;;;;;;;5073644;28;1313;-70
2022/07/18 01:38:27;;;;;;;;;;;;;;;;;;5055236;28;1254;-70
2022/07/18 01:40:53;;;;;;;;;;;;;;;;;;5073566;28;1122;-70
2022/07/18 01:43:19;;;;;;;;;;;;;;;;;;5073637;28;1918;-70
2022/07/18 01:45:45;;;;;;;;;;;;;;;;;;5073619;28;1406;-70
2022/07/18 01:48:12;;;;;;;;;;;;;;;;;;5072688;28;786;-70
2022/07/18 01:50:38;;;;;;;;;;;;;;;;;;5073724;28;1005;-70
2022/07/18 01:53:04;;;;;;;;;;;;;;;;;;5073590;28;874;-70
2022/07/18 01:55:31;;;;;;;;;;;;;;;;;;5073310;28;1414;-70
2022/07/18 01:57:58;;;;;;;;;;;;;;;;;;5054725;28;1159;-70
2022/07/18 02:00:24;;;;;;;;;;;;;;;;;;5055519;28;1123;-71
2022/07/18 02:02:50;;;;;;;;;;;;;;;;;;5073309;28;1969;-70
2022/07/18 02:05:16;;;;;;;;;;;;;;;;;;5072475;28;1531;-70
2022/07/18 02:07:43;;;;;;;;;;;;;;;;;;5072491;28;1071;-70
2022/07/18 02:10:11;;;;;;;;;;;;;;;;;;5072782;28;1110;-70
2022/07/18 02:12:38;;;;;;;;;;;;;;;;;;5073061;28;1120;-70
2022/07/18 02:15:05;;;;;;;;;;;;;;;;;;5073059;28;1336;-70
2022/07/18 02:17:31;;;;;;;;;;;;;;;;;;5072257;28;1107;-70
2022/07/18 02:19:57;;;;;;;;;;;;;;;;;;5072696;28;945;-70
2022/07/18 02:22:24;;;;;;;;;;;;;;;;;;5072550;28;1914;-70
2022/07/18 02:24:50;;;;;;;;;;;;;;;;;;5055180;28;1120;-70
2022/07/18 02:27:16;;;;;;;;;;;;;;;;;;5072104;28;1403;-70
2022/07/18 02:29:44;;;;;;;;;;;;;;;;;;5072471;28;937;-70
2022/07/18 02:32:10;;;;;;;;;;;;;;;;;;5072594;28;956;-70
2022/07/18 02:34:36;;;;;;;;;;;;;;;;;;5054764;28;1200;-70
2022/07/18 02:37:02;;;;;;;;;;;;;;;;;;5071770;28;1310;-70
2022/07/18 02:39:29;;;;;;;;;;;;;;;;;;5054769;28;1436;-70
2022/07/18 02:41:55;;;;;;;;;;;;;;;;;;5072397;28;1914;-70
2022/07/18 02:44:21;;;;;;;;;;;;;;;;;;5072561;28;881;-69
2022/07/18 02:46:49;;;;;;;;;;;;;;;;;;5071642;28;1258;-70
2022/07/18 02:49:27;;;;;;;;;;;;;;;;;;5054263;28;1159;-70
2022/07/18 02:51:54;;;;;;;;;;;;;;;;;;5072234;28;1107;-70
2022/07/18 02:54:20;;;;;;;;;;;;;;;;;;5072350;28;1117;-70
2022/07/18 02:56:47;;;;;;;;;;;;;;;;;;5071280;28;1390;-70
2022/07/18 02:59:13;;;;;;;;;;;;;;;;;;5072117;28;1162;-70
2022/07/18 03:01:39;;;;;;;;;;;;;;;;;;5072180;28;1055;-70
2022/07/18 03:04:06;;;;;;;;;;;;;;;;;;5053807;28;1914;-70
2022/07/18 03:06:33;;;;;;;;;;;;;;;;;;5053327;28;1363;-70
2022/07/18 03:08:59;;;;;;;;;;;;;;;;;;5072203;28;817;-70
2022/07/18 03:11:25;;;;;;;;;;;;;;;;;;5072770;28;985;-70
2022/07/18 03:13:51;;;;;;;;;;;;;;;;;;5072496;28;1067;-70
2022/07/18 03:16:17;;;;;;;;;;;;;;;;;;5071441;28;1418;-70
2022/07/18 03:18:43;;;;;;;;;;;;;;;;;;5071993;28;1072;-70
2022/07/18 03:21:11;;;;;;;;;;;;;;;;;;5071869;28;1071;-70
2022/07/18 03:23:37;;;;;;;;;;;;;;;;;;5071605;28;1933;-70
2022/07/18 03:26:03;;;;;;;;;;;;;;;;;;5071636;28;1320;-70
2022/07/18 03:28:29;;;;;;;;;;;;;;;;;;5071172;28;1173;-70
2022/07/18 03:30:58;;;;;;;;;;;;;;;;;;5071450;28;1068;-70
2022/07/18 03:33:24;;;;;;;;;;;;;;;;;;5071484;28;1115;-70
2022/07/18 03:35:50;;;;;;;;;;;;;;;;;;5071781;28;1414;-70
2022/07/18 03:38:18;;;;;;;;;;;;;;;;;;5070773;28;909;-70
2022/07/18 03:40:44;;;;;;;;;;;;;;;;;;5070885;28;1071;-70
2022/07/18 03:43:10;;;;;;;;;;;;;;;;;;5071297;28;1967;-70
2022/07/18 03:45:37;;;;;;;;;;;;;;;;;;5053467;28;1415;-70
2022/07/18 03:48:03;;;;;;;;;;;;;;;;;;5070401;28;1124;-70
2022/07/18 03:50:29;;;;;;;;;;;;;;;;;;5053512;28;1429;-70
2022/07/18 03:52:55;;;;;;;;;;;;;;;;;;5071156;28;797;-70
2022/07/18 03:55:23;;;;;;;;;;;;;;;;;;5071516;28;1317;-70
2022/07/18 03:57:49;;;;;;;;;;;;;;;;;;5070656;28;1067;-70
2022/07/18 04:00:16;;;;;;;;;;;;;;;;;;5083562;22;3678;-73
2022/07/18 04:02:44;;;;;;;;;;;;;;;;;;5071226;28;2047;-74
2022/07/18 04:05:10;;;;;;;;;;;;;;;;;;5070438;28;1272;-74
2022/07/18 04:07:37;;;;;;;;;;;;;;;;;;5063730;28;1683;-75
2022/07/18 04:10:04;;;;;;;;;;;;;;;;;;5074237;28;1495;-74
2022/07/18 04:12:31;;;;;;;;;;;;;;;;;;5051932;28;1306;-72
2022/07/18 04:14:58;;;;;;;;;;;;;;;;;;5068557;28;1348;-73
2022/07/18 04:17:24;;;;;;;;;;;;;;;;;;5065543;28;1434;-73
2022/07/18 04:19:50;;;;;;;;;;;;;;;;;;5070477;28;1241;-72
2022/07/18 04:22:16;;;;;;;;;;;;;;;;;;5070225;28;1342;-72
2022/07/18 04:24:42;;;;;;;;;;;;;;;;;;5070581;28;1956;-74
2022/07/18 04:27:09;;;;;;;;;;;;;;;;;;5051047;28;1436;-73
2022/07/18 04:29:37;;;;;;;;;;;;;;;;;;5068760;28;1395;-73
2022/07/18 04:32:03;;;;;;;;;;;;;;;;;;5052316;28;1349;-73
2022/07/18 04:34:30;;;;;;;;;;;;;;;;;;5051990;28;1298;-73
2022/07/18 04:36:56;;;;;;;;;;;;;;;;;;5050966;28;1286;-73
2022/07/18 04:39:22;;;;;;;;;;;;;;;;;;5072227;28;1247;-73
2022/07/18 04:41:48;;;;;;;;;;;;;;;;;;5078833;28;1481;-73
2022/07/18 04:44:14;;;;;;;;;;;;;;;;;;5051881;28;1922;-74
2022/07/18 04:46:42;;;;;;;;;;;;;;;;;;5069311;28;1314;-73
2022/07/18 04:49:08;;;;;;;;;;;;;;;;;;5069817;28;1322;-74
2022/07/18 04:51:34;;;;;;;;;;;;;;;;;;5071314;28;1474;-73
2022/07/18 04:54:00;;;;;;;;;;;;;;;;;;5055804;28;1290;-73
2022/07/18 04:56:27;;;;;;;;;;;;;;;;;;5064907;28;1258;-73
2022/07/18 04:58:53;;;;;;;;;;;;;;;;;;5085533;28;1302;-73
2022/07/18 05:01:19;;;;;;;;;;;;;;;;;;5065120;28;1429;-74
2022/07/18 05:03:47;;;;;;;;;;;;;;;;;;5083099;28;1973;-74
2022/07/18 05:06:13;;;;;;;;;;;;;;;;;;5076097;28;1335;-74
2022/07/18 05:08:39;;;;;;;;;;;;;;;;;;5073340;28;1192;-74
2022/07/18 05:11:05;;;;;;;;;;;;;;;;;;5072109;28;1392;-74
2022/07/18 05:13:31;;;;;;;;;;;;;;;;;;5072501;28;1278;-74
2022/07/18 05:15:58;;;;;;;;;;;;;;;;;;5072427;28;1223;-73
2022/07/18 05:18:24;;;;;;;;;;;;;;;;;;5054851;28;1247;-73
2022/07/18 05:20:51;;;;;;;;;;;;;;;;;;5071691;28;1649;-74
2022/07/18 05:23:17;;;;;;;;;;;;;;;;;;5073409;28;1918;-73
2022/07/18 05:25:44;;;;;;;;;;;;;;;;;;5055581;28;1469;-75
2022/07/18 05:28:10;;;;;;;;;;;;;;;;;;5073118;28;1297;-73
2022/07/18 05:30:36;;;;;;;;;;;;;;;;;;5056344;28;1428;-74
2022/07/18 05:33:02;;;;;;;;;;;;;;;;;;5073116;28;762;-75
2022/07/18 05:35:29;;;;;;;;;;;;;;;;;;5055483;28;1227;-75
2022/07/18 05:37:56;;;;;;;;;;;;;;;;;;5061953;28;1411;-77
2022/07/18 05:40:22;;;;;;;;;;;;;;;;;;5046174;28;1413;-77
2022/07/18 05:42:49;;;;;;;;;;;;;;;;;;5064293;28;1942;-76
2022/07/18 05:45:15;;;;;;;;;;;;;;;;;;5059454;28;1362;-78
2022/07/18 05:47:42;;;;;;;;;;;;;;;;;;5071409;28;1002;-76
2022/07/18 05:50:09;;;;;;;;;;;;;;;;;;5070766;28;1470;-77
2022/07/18 05:52:35;;;;;;;;;;;;;;;;;;5072686;28;1681;-76
2022/07/18 05:55:03;;;;;;;;;;;;;;;;;;5055193;28;1149;-76
2022/07/18 05:57:29;;;;;;;;;;;;;;;;;;5053698;28;1455;-74
2022/07/18 05:59:55;;;;;;;;;;;;;;;;;;5071833;28;1396;-74
2022/07/18 06:02:22;;;;;;;;;;;;;;;;;;5053151;28;1411;-76
2022/07/18 06:04:48;;;;;;;;;;;;;;;;;;5072289;28;1918;-75
2022/07/18 06:07:14;;;;;;;;;;;;;;;;;;5065270;28;1424;-75
2022/07/18 06:09:40;;;;;;;;;;;;;;;;;;5072422;28;1182;-76
2022/07/18 06:12:08;;;;;;;;;;;;;;;;;;5071588;28;1412;-75
2022/07/18 06:14:34;;;;;;;;;;;;;;;;;;5073455;28;1783;-76
2022/07/18 06:17:00;;;;;;;;;;;;;;;;;;5053601;28;1496;-78
2022/07/18 06:19:26;;;;;;;;;;;;;;;;;;5053790;28;1136;-76
2022/07/18 06:21:53;;;;;;;;;;;;;;;;;;5071017;28;1561;-76
2022/07/18 06:24:19;;;;;;;;;;;;;;;;;;5072316;28;1922;-76
2022/07/18 06:26:45;;;;;;;;;;;;;;;;;;5052642;28;1458;-76
2022/07/18 06:29:12;;;;;;;;;;;;;;;;;;5070871;28;1451;-77
2022/07/18 06:31:39;;;;;;;;;;;;;;;;;;5070775;28;1423;-76
2022/07/18 06:34:05;;;;;;;;;;;;;;;;;;5070569;28;1494;-76
2022/07/18 06:36:31;;;;;;;;;;;;;;;;;;5071198;28;1146;-76
2022/07/18 06:38:57;;;;;;;;;;;;;;;;;;5070688;28;1451;-80
2022/07/18 06:41:23;;;;;;;;;;;;;;;;;;5069507;28;1419;-79
2022/07/18 06:43:50;;;;;;;;;;;;;;;;;;5071263;28;1902;-77
2022/07/18 06:46:17;;;;;;;;;;;;;;;;;;5051059;28;1570;-79
2022/07/18 06:48:43;;;;;;;;;;;;;;;;;;5070460;28;1581;-78
2022/07/18 06:51:10;;;;;;;;;;;;;;;;;;5069963;28;1498;-76
2022/07/18 06:53:36;;;;;;;;;;;;;;;;;;5071401;28;944;-76
2022/07/18 06:56:02;;;;;;;;;;;;;;;;;;5053144;28;1181;-76
2022/07/18 06:58:30;;;;;;;;;;;;;;;;;;5053350;28;1137;-78
2022/07/18 07:00:56;;;;;;;;;;;;;;;;;;5070462;28;1395;-76
2022/07/18 07:03:24;;;;;;;;;;;;;;;;;;5071294;28;1969;-76
2022/07/18 07:05:50;;;;;;;;;;;;;;;;;;5071126;28;699;-77
2022/07/18 07:08:16;;;;;;;;;;;;;;;;;;5069824;28;1029;-76
2022/07/18 07:10:42;;;;;;;;;;;;;;;;;;5070556;28;1332;-76
2022/07/18 07:13:08;;;;;;;;;;;;;;;;;;5070975;28;1068;-76
2022/07/18 07:15:35;;;;;;;;;;;;;;;;;;5070450;28;1040;-74
2022/07/18 07:18:01;;;;;;;;;;;;;;;;;;5070621;28;1044;-75
2022/07/18 07:20:28;;;;;;;;;;;;;;;;;;5070397;28;1337;-75
2022/07/18 07:22:55;;;;;;;;;;;;;;;;;;5052907;28;1192;-78
2022/07/18 07:25:22;;;;;;;;;;;;;;;;;;5052731;28;1979;-76
2022/07/18 07:27:49;;;;;;;;;;;;;;;;;;5070425;28;1067;-75
2022/07/18 07:30:16;;;;;;;;;;;;;;;;;;5052293;28;1407;-76
2022/07/18 07:32:42;;;;;;;;;;;;;;;;;;5070603;28;823;-75
2022/07/18 07:35:11;;;;;;;;;;;;;;;;;;5052507;28;1303;-76
2022/07/18 07:37:38;;;;;;;;;;;;;;;;;;5069944;28;1166;-74
2022/07/18 07:40:05;;;;;;;;;;;;;;;;;;5069976;28;1403;-76
2022/07/18 07:42:31;;;;;;;;;;;;;;;;;;5070368;28;1147;-75
2022/07/18 07:44:58;;;;;;;;;;;;;;;;;;5052414;28;1910;-74
2022/07/18 07:47:24;;;;;;;;;;;;;;;;;;5052107;28;1612;-74
2022/07/18 07:49:51;;;;;;;;;;;;;;;;;;5068837;28;1320;-74
2022/07/18 07:52:18;;;;;;;;;;;;;;;;;;5068529;28;1444;-73
2022/07/18 07:54:46;;;;;;;;;;;;;;;;;;5070379;28;1161;-72
2022/07/18 07:57:12;;;;;;;;;;;;;;;;;;5069475;28;1072;-73
2022/07/18 07:59:38;;;;;;;;;;;;;;;;;;5069626;28;1495;-74
2022/07/18 08:02:04;;;;;;;;;;;;;;;;;;5069598;28;1387;-74
2022/07/18 08:04:30;;;;;;;;;;;;;;;;;;5069625;28;1914;-73
2022/07/18 08:06:57;;;;;;;;;;;;;;;;;;5069594;28;1591;-74
2022/07/18 08:09:23;;;;;;;;;;;;;;;;;;5069133;28;1532;-73
2022/07/18 08:11:50;;;;;;;;;;;;;;;;;;5051543;28;1402;-71
2022/07/18 08:14:17;;;;;;;;;;;;;;;;;;5070257;28;949;-74
2022/07/18 08:16:43;;;;;;;;;;;;;;;;;;5068215;28;1467;-74
2022/07/18 08:19:09;;;;;;;;;;;;;;;;;;5068897;28;1361;-76
2022/07/18 08:21:35;;;;;;;;;;;;;;;;;;5069727;28;1491;-73
2022/07/18 08:24:02;;;;;;;;;;;;;;;;;;5069966;28;1902;-73
2022/07/18 08:26:28;;;;;;;;;;;;;;;;;;5070255;28;1535;-72
2022/07/18 08:28:56;;;;;;;;;;;;;;;;;;5057582;28;1485;-74
2022/07/18 08:31:22;;;;;;;;;;;;;;;;;;5073391;28;1375;-74
2022/07/18 08:33:49;;;;;;;;;;;;;;;;;;5072914;28;1417;-71
2022/07/18 08:36:15;;;;;;;;;;;;;;;;;;5072817;28;1224;-74
2022/07/18 08:38:41;;;;;;;;;;;;;;;;;;5056000;28;1287;-73
2022/07/18 08:41:07;;;;;;;;;;;;;;;;;;5071204;28;1470;-73
2022/07/18 08:43:34;;;;;;;;;;;;;;;;;;5073458;28;1468;-73
2022/07/18 08:46:03;;;;;;;;;;;;;;;;;;5073643;28;1910;-73
2022/07/18 08:48:29;;;;;;;;;;;;;;;;;;5054672;28;1418;-73
2022/07/18 08:50:55;;;;;;;;;;;;;;;;;;5073048;28;1555;-73
2022/07/18 08:53:21;;;;;;;;;;;;;;;;;;5073522;28;1138;-74
2022/07/18 08:55:48;;;;;;;;;;;;;;;;;;5073775;28;1518;-73
2022/07/18 08:58:15;;;;;;;;;;;;;;;;;;5072199;28;1412;-74
2022/07/18 09:00:41;;;;;;;;;;;;;;;;;;5071822;28;1695;-73
2022/07/18 09:03:08;;;;;;;;;;;;;;;;;;5071966;28;1165;-74
2022/07/18 09:05:34;;;;;;;;;;;;;;;;;;5073446;28;1938;-76
2022/07/18 09:08:11;;;;;;;;;;;;;;;;;;5054694;28;1327;-74
2022/07/18 09:10:50;;;;;;;;;;;;;;;;;;5073034;28;1330;-75
2022/07/18 09:13:16;;;;;;;;;;;;;;;;;;5072883;28;988;-75
2022/07/18 09:15:56;;;;;;;;;;;;;;;;;;5072003;28;1415;-74
2022/07/18 09:18:27;;;;;;;;;;;;;;;;;;5047165;28;1162;-74
2022/07/18 09:20:58;;;;;;;;;;;;;;;;;;5070694;28;1490;-76
2022/07/18 09:23:25;;;;;;;;;;;;;;;;;;5054753;28;1303;-75
2022/07/18 09:25:51;;;;;;;;;;;;;;;;;;5072435;28;1914;-74
2022/07/18 09:28:18;;;;;;;;;;;;;;;;;;5070242;28;1083;-75
2022/07/18 09:30:44;;;;;;;;;;;;;;;;;;5072677;28;1326;-75
2022/07/18 09:33:11;;;;;;;;;;;;;;;;;;5071306;28;1110;-75
2022/07/18 09:35:43;;;;;;;;;;;;;;;;;;5072753;28;1375;-75
2022/07/18 09:38:09;;;;;;;;;;;;;;;;;;5070049;28;1375;-76
2022/07/18 09:40:36;;;;;;;;;;;;;;;;;;5054675;28;1412;-75
2022/07/18 09:43:03;;;;;;;;;;;;;;;;;;5071468;28;1423;-75
2022/07/18 09:45:30;;;;;;;;;;;;;;;;;;5052790;28;1926;-75
2022/07/18 09:47:57;;;;;;;;;;;;;;;;;;5054833;28;1589;-76
2022/07/18 09:50:27;;;;;;;;;;;;;;;;;;5053571;28;1426;-76
2022/07/18 09:53:00;;;;;;;;;;;;;;;;;;5052599;28;1434;-75
2022/07/18 09:55:26;;;;;;;;;;;;;;;;;;5053860;28;1427;-76
2022/07/18 09:58:01;;;;;;;;;;;;;;;;;;5052966;28;1503;-76
2022/07/18 10:00:27;;;;;;;;;;;;;;;;;;5065553;28;1454;-75
2022/07/18 10:02:53;;;;;;;;;;;;;;;;;;5072134;28;1217;-77
2022/07/18 10:05:19;;;;;;;;;;;;;;;;;;5071725;28;2050;-75
2022/07/18 10:07:46;;;;;;;;;;;;;;;;;;5049451;28;2597;-75
2022/07/18 10:10:14;;;;;;;;;;;;;;;;;;5081840;28;1467;-76
2022/07/18 10:12:40;;;;;;;;;;;;;;;;;;5064488;28;1355;-74
2022/07/18 10:15:07;;;;;;;;;;;;;;;;;;5069275;28;1412;-75
2022/07/18 10:17:33;;;;;;;;;;;;;;;;;;5065293;28;1617;-75
2022/07/18 10:20:03;;;;;;;;;;;;;;;;;;5070294;28;1415;-75
2022/07/18 10:25:02;;;;;;;;;;;;;;;;;;4946155;28;1937;-74
2022/07/18 10:27:30;;;;;;;;;;;;;;;;;;4950145;28;1059;-73
2022/07/18 10:30:09;;;;;;;;;;;;;;;;;;4967866;28;1511;-74
2022/07/18 10:32:35;;;;;;;;;;;;;;;;;;4950214;28;1420;-73
2022/07/18 10:35:01;;;;;;;;;;;;;;;;;;4952280;28;1068;-74
2022/07/18 10:37:27;;;;;;;;;;;;;;;;;;5000494;28;1916;-74
2022/07/18 10:39:54;;;;;;;;;;;;;;;;;;4974455;28;1857;-74
2022/07/18 10:42:24;;;;;;;;;;;;;;;;;;5017334;28;1432;-74
2022/07/18 10:44:52;;;;;;;;;;;;;;;;;;5051227;28;1910;-74
2022/07/18 10:47:20;;;;;;;;;;;;;;;;;;5011801;28;1433;-74
2022/07/18 10:50:08;;;;;;;;;;;;;;;;;;5032418;28;1182;-74
2022/07/18 10:52:53;;;;;;;;;;;;;;;;;;5051204;28;1400;-74
2022/07/18 10:55:28;;;;;;;;;;;;;;;;;;5051172;28;1096;-73
2022/07/18 10:58:09;;;;;;;;;;;;;;;;;;5043959;28;1450;-74
2022/07/18 11:00:37;;;;;;;;;;;;;;;;;;4991231;28;1889;-74
2022/07/18 11:03:04;;;;;;;;;;;;;;;;;;4991772;28;1367;-74
2022/07/18 11:05:34;;;;;;;;;;;;;;;;;;4981225;28;1981;-73
2022/07/18 11:08:17;;;;;;;;;;;;;;;;;;5001000;28;1432;-73
2022/07/18 11:11:02;;;;;;;;;;;;;;;;;;4988092;28;1650;-73
2022/07/18 11:13:29;;;;;;;;;;;;;;;;;;5029681;28;1705;-73
2022/07/18 11:15:58;;;;;;;;;;;;;;;;;;5033440;28;1693;-73
2022/07/18 11:18:24;;;;;;;;;;;;;;;;;;4949729;29;1076;-73
2022/07/18 11:20:51;;;;;;;;;;;;;;;;;;4954124;28;1440;-73
2022/07/18 11:23:18;;;;;;;;;;;;;;;;;;5034812;28;1441;-73
2022/07/18 11:25:44;;;;;;;;;;;;;;;;;;4989014;28;1981;-75
2022/07/18 11:28:11;;;;;;;;;;;;;;;;;;4991163;28;1162;-74
2022/07/18 11:30:38;;;;;;;;;;;;;;;;;;4950419;28;835;-75
2022/07/18 11:33:05;;;;;;;;;;;;;;;;;;4950124;28;1340;-73
2022/07/18 11:35:31;;;;;;;;;;;;;;;;;;4961300;28;1463;-74
2022/07/18 11:37:58;;;;;;;;;;;;;;;;;;4997515;28;1060;-73
2022/07/18 11:40:24;;;;;;;;;;;;;;;;;;5049273;28;1117;-74
2022/07/18 11:42:50;;;;;;;;;;;;;;;;;;5037190;28;1496;-73
2022/07/18 11:45:17;;;;;;;;;;;;;;;;;;4990927;28;1979;-74
2022/07/18 11:47:47;;;;;;;;;;;;;;;;;;5029124;28;1185;-74
2022/07/18 11:50:14;;;;;;;;;;;;;;;;;;5050368;28;1065;-73
2022/07/18 11:52:40;;;;;;;;;;;;;;;;;;5032190;28;1408;-73
2022/07/18 11:55:07;;;;;;;;;;;;;;;;;;4949253;28;1116;-73
2022/07/18 11:57:33;;;;;;;;;;;;;;;;;;4948911;29;1127;-73
2022/07/18 12:00:00;;;;;;;;;;;;;;;;;;4949498;29;938;-73
2022/07/18 12:02:26;;;;;;;;;;;;;;;;;;4992832;28;1499;-73
2022/07/18 12:04:52;;;;;;;;;;;;;;;;;;5034769;28;1959;-74
2022/07/18 12:07:20;;;;;;;;;;;;;;;;;;4990351;28;1118;-73
2022/07/18 12:09:46;;;;;;;;;;;;;;;;;;4970849;28;1527;-73
2022/07/18 12:12:13;;;;;;;;;;;;;;;;;;5009719;28;1336;-73
2022/07/18 12:14:40;;;;;;;;;;;;;;;;;;4949386;28;1262;-74
2022/07/18 12:17:06;;;;;;;;;;;;;;;;;;4948599;29;1052;-74
2022/07/18 12:19:34;;;;;;;;;;;;;;;;;;4955291;28;1178;-74
2022/07/18 12:22:05;;;;;;;;;;;;;;;;;;4972235;28;1417;-74
2022/07/18 12:24:33;;;;;;;;;;;;;;;;;;5008254;28;1415;-74
2022/07/18 12:27:18;;;;;;;;;;;;;;;;;;5037448;28;1910;-74
2022/07/18 12:29:54;;;;;;;;;;;;;;;;;;4952913;28;1562;-74
2022/07/18 12:32:22;;;;;;;;;;;;;;;;;;4949331;29;890;-74
2022/07/18 12:34:54;;;;;;;;;;;;;;;;;;4958809;28;1487;-74
2022/07/18 12:37:23;;;;;;;;;;;;;;;;;;4983388;28;1111;-74
2022/07/18 12:39:50;;;;;;;;;;;;;;;;;;4948987;28;1108;-74
2022/07/18 12:42:27;;;;;;;;;;;;;;;;;;4952029;28;1335;-73
2022/07/18 12:44:53;;;;;;;;;;;;;;;;;;4930067;29;1076;-74
2022/07/18 12:47:19;;;;;;;;;;;;;;;;;;5024087;28;1918;-74
2022/07/18 12:49:45;;;;;;;;;;;;;;;;;;4994053;28;1064;-74
2022/07/18 12:52:11;;;;;;;;;;;;;;;;;;5048637;28;1147;-74
2022/07/18 12:54:38;;;;;;;;;;;;;;;;;;5046735;28;1388;-74
2022/07/18 12:57:05;;;;;;;;;;;;;;;;;;4949637;28;1674;-75
2022/07/18 12:59:31;;;;;;;;;;;;;;;;;;4948551;29;1084;-74
2022/07/18 13:01:57;;;;;;;;;;;;;;;;;;5002662;28;1543;-74
2022/07/18 13:04:24;;;;;;;;;;;;;;;;;;4998243;28;1406;-75
2022/07/18 13:06:50;;;;;;;;;;;;;;;;;;4990879;28;1911;-74
2022/07/18 13:09:16;;;;;;;;;;;;;;;;;;5012070;28;1479;-74
2022/07/18 13:11:46;;;;;;;;;;;;;;;;;;4992960;28;1451;-75
2022/07/18 13:14:13;;;;;;;;;;;;;;;;;;5052906;28;1500;-75
2022/07/18 13:16:39;;;;;;;;;;;;;;;;;;5036489;28;1729;-75
2022/07/18 13:19:06;;;;;;;;;;;;;;;;;;5017303;28;1131;-75
2022/07/18 13:21:32;;;;;;;;;;;;;;;;;;5037519;28;1392;-75
2022/07/18 13:23:58;;;;;;;;;;;;;;;;;;4960511;28;1387;-75
2022/07/18 13:26:24;;;;;;;;;;;;;;;;;;4960645;28;1897;-75
2022/07/18 13:28:50;;;;;;;;;;;;;;;;;;4997113;28;1720;-74
2022/07/18 13:31:18;;;;;;;;;;;;;;;;;;5010579;28;1118;-74
2022/07/18 13:33:44;;;;;;;;;;;;;;;;;;5015145;28;1781;-74
2022/07/18 13:36:10;;;;;;;;;;;;;;;;;;5011990;28;1661;-73
2022/07/18 13:38:36;;;;;;;;;;;;;;;;;;5009603;28;1376;-75
2022/07/18 13:41:02;;;;;;;;;;;;;;;;;;4984478;28;1132;-75
2022/07/18 13:43:29;;;;;;;;;;;;;;;;;;4968711;28;1432;-74
2022/07/18 13:45:55;;;;;;;;;;;;;;;;;;5022979;28;1960;-75
2022/07/18 13:48:22;;;;;;;;;;;;;;;;;;4953140;28;1820;-74
2022/07/18 13:50:48;;;;;;;;;;;;;;;;;;4993228;28;1237;-74
2022/07/18 13:53:15;;;;;;;;;;;;;;;;;;5044174;28;1772;-74
2022/07/18 13:55:41;;;;;;;;;;;;;;;;;;4996023;28;1075;-74
2022/07/18 13:58:07;;;;;;;;;;;;;;;;;;5047969;28;1167;-74
2022/07/18 14:00:33;;;;;;;;;;;;;;;;;;5044136;28;1809;-75
2022/07/18 14:02:59;;;;;;;;;;;;;;;;;;4993759;28;1401;-75
2022/07/18 14:05:27;;;;;;;;;;;;;;;;;;4950320;28;1919;-74
2022/07/18 14:07:53;;;;;;;;;;;;;;;;;;4950392;28;1302;-74
2022/07/18 14:10:19;;;;;;;;;;;;;;;;;;4951768;28;1224;-75
2022/07/18 14:12:45;;;;;;;;;;;;;;;;;;4955438;28;1497;-74
2022/07/18 14:15:12;;;;;;;;;;;;;;;;;;4964065;28;1166;-75
2022/07/18 14:17:38;;;;;;;;;;;;;;;;;;4997802;28;1649;-75
2022/07/18 14:20:06;;;;;;;;;;;;;;;;;;5009961;28;1201;-75
2022/07/18 14:22:34;;;;;;;;;;;;;;;;;;5052163;28;1336;-75
2022/07/18 14:25:00;;;;;;;;;;;;;;;;;;5051484;28;1063;-76
2022/07/18 14:27:26;;;;;;;;;;;;;;;;;;5051075;28;1983;-75
2022/07/18 14:29:52;;;;;;;;;;;;;;;;;;5051660;28;1052;-75
2022/07/18 14:32:19;;;;;;;;;;;;;;;;;;5006179;28;1796;-75
2022/07/18 14:34:45;;;;;;;;;;;;;;;;;;5006639;28;1585;-75
2022/07/18 14:37:11;;;;;;;;;;;;;;;;;;4999523;28;1602;-75
2022/07/18 14:39:38;;;;;;;;;;;;;;;;;;5048263;28;1787;-75
2022/07/18 14:42:05;;;;;;;;;;;;;;;;;;4992535;28;1220;-74
2022/07/18 14:44:31;;;;;;;;;;;;;;;;;;4987247;28;1731;-75
2022/07/18 14:46:57;;;;;;;;;;;;;;;;;;5049120;28;1918;-75
2022/07/18 14:49:24;;;;;;;;;;;;;;;;;;5051475;28;941;-75
2022/07/18 14:51:50;;;;;;;;;;;;;;;;;;5051623;28;1107;-76
2022/07/18 14:54:16;;;;;;;;;;;;;;;;;;5051962;28;1322;-75
2022/07/18 14:56:43;;;;;;;;;;;;;;;;;;5016431;28;1808;-76
2022/07/18 14:59:10;;;;;;;;;;;;;;;;;;5047590;28;1423;-76
2022/07/18 15:01:36;;;;;;;;;;;;;;;;;;5006722;28;1127;-75
2022/07/18 15:04:02;;;;;;;;;;;;;;;;;;4936830;28;1829;-76
2022/07/18 15:06:28;;;;;;;;;;;;;;;;;;5038050;28;1915;-75
2022/07/18 15:08:54;;;;;;;;;;;;;;;;;;5032800;28;1124;-75
2022/07/18 15:11:23;;;;;;;;;;;;;;;;;;4950486;29;1057;-76
2022/07/18 15:13:51;;;;;;;;;;;;;;;;;;4950261;29;1380;-75
2022/07/18 15:16:17;;;;;;;;;;;;;;;;;;4949880;29;1072;-75
2022/07/18 15:18:43;;;;;;;;;;;;;;;;;;4991961;28;1781;-75
2022/07/18 15:21:10;;;;;;;;;;;;;;;;;;5005959;28;1147;-75
2022/07/18 15:23:36;;;;;;;;;;;;;;;;;;5044280;28;1785;-75
2022/07/18 15:26:02;;;;;;;;;;;;;;;;;;5016838;28;1985;-75
2022/07/18 15:28:28;;;;;;;;;;;;;;;;;;5027931;28;1409;-75
2022/07/18 15:30:56;;;;;;;;;;;;;;;;;;4981636;28;1776;-75
2022/07/18 15:33:22;;;;;;;;;;;;;;;;;;5008981;28;1486;-75
2022/07/18 15:35:48;;;;;;;;;;;;;;;;;;5049776;28;1513;-74
2022/07/18 15:38:14;;;;;;;;;;;;;;;;;;5036690;28;1811;-75
2022/07/18 15:40:41;;;;;;;;;;;;;;;;;;5010187;28;1186;-75
2022/07/18 15:43:07;;;;;;;;;;;;;;;;;;5032585;28;1443;-75
2022/07/18 15:45:33;;;;;;;;;;;;;;;;;;5024194;28;1815;-74
2022/07/18 15:48:00;;;;;;;;;;;;;;;;;;5002996;28;1975;-75
2022/07/18 15:50:27;;;;;;;;;;;;;;;;;;5049174;28;1237;-75
2022/07/18 15:52:53;;;;;;;;;;;;;;;;;;5050251;28;1301;-75
2022/07/18 15:55:19;;;;;;;;;;;;;;;;;;5050207;28;960;-73
2022/07/18 15:57:45;;;;;;;;;;;;;;;;;;5048145;28;1206;-74
2022/07/18 16:00:12;;;;;;;;;;;;;;;;;;5010395;28;1032;-74
2022/07/18 16:02:38;;;;;;;;;;;;;;;;;;4995154;28;1562;-73
2022/07/18 16:05:06;;;;;;;;;;;;;;;;;;4989732;28;1425;-73
2022/07/18 16:07:32;;;;;;;;;;;;;;;;;;4996012;28;1989;-75
2022/07/18 16:09:59;;;;;;;;;;;;;;;;;;4947015;28;2054;-73
2022/07/18 16:12:25;;;;;;;;;;;;;;;;;;4948612;29;1039;-74
2022/07/18 16:14:53;;;;;;;;;;;;;;;;;;5036025;28;1442;-73
2022/07/18 16:17:19;;;;;;;;;;;;;;;;;;4949705;29;905;-73
2022/07/18 16:19:45;;;;;;;;;;;;;;;;;;4950035;29;1064;-73
2022/07/18 16:22:13;;;;;;;;;;;;;;;;;;4950194;29;1044;-74
2022/07/18 16:24:39;;;;;;;;;;;;;;;;;;4950079;29;1392;-74
2022/07/18 16:27:05;;;;;;;;;;;;;;;;;;4949500;29;1984;-73
2022/07/18 16:29:31;;;;;;;;;;;;;;;;;;4950230;29;962;-73
2022/07/18 16:31:57;;;;;;;;;;;;;;;;;;4949934;29;949;-73
2022/07/18 16:34:24;;;;;;;;;;;;;;;;;;4949782;29;1444;-73
2022/07/18 16:36:51;;;;;;;;;;;;;;;;;;4949172;29;1112;-74
2022/07/18 16:39:18;;;;;;;;;;;;;;;;;;4949958;29;685;-73
2022/07/18 16:41:45;;;;;;;;;;;;;;;;;;4950051;28;1515;-72
2022/07/18 16:44:11;;;;;;;;;;;;;;;;;;4968799;28;1496;-73
2022/07/18 16:46:38;;;;;;;;;;;;;;;;;;4902582;28;1966;-73
2022/07/18 16:49:05;;;;;;;;;;;;;;;;;;4969380;28;1725;-72
2022/07/18 16:51:31;;;;;;;;;;;;;;;;;;4917045;28;1043;-74
2022/07/18 16:53:58;;;;;;;;;;;;;;;;;;4953298;28;1381;-74
2022/07/18 16:56:25;;;;;;;;;;;;;;;;;;4986230;28;1294;-74
2022/07/18 16:58:53;;;;;;;;;;;;;;;;;;4990482;28;893;-74
2022/07/18 17:01:19;;;;;;;;;;;;;;;;;;4971625;28;1486;-74
2022/07/18 17:03:45;;;;;;;;;;;;;;;;;;5036440;28;1436;-74